sensor_id;sensor_type;location;lat;lon;timestamp;P1;durP1;ratioP1;P2;durP2;ratioP2
39486;SDS011;25173;50.430;18.926;2023-05-27T00:01:02;24.23;;;6.93;;
39486;SDS011;25173;50.430;18.926;2023-05-27T00:04:03;19.52;;;6.75;;
39486;SDS011;25173;50.430;18.926;2023-05-27T00:07:03;20.02;;;7.13;;
39486;SDS011;25173;50.430;18.926;2023-05-27T00:10:04;16.10;;;5.65;;
39486;SDS011;25173;50.430;18.926;2023-05-27T00:13:05;13.07;;;5.70;;
39486;SDS011;25173;50.430;18.926;2023-05-27T00:16:06;14.07;;;6.45;;
39486;SDS011;25173;50.430;18.926;2023-05-27T00:19:07;11.00;;;5.40;;
39486;SDS011;25173;50.430;18.926;2023-05-27T00:22:08;18.25;;;6.07;;
39486;SDS011;25173;50.430;18.926;2023-05-27T00:25:08;15.40;;;6.05;;
39486;SDS011;25173;50.430;18.926;2023-05-27T00:28:09;15.07;;;5.57;;
39486;SDS011;25173;50.430;18.926;2023-05-27T00:31:10;15.77;;;6.45;;
39486;SDS011;25173;50.430;18.926;2023-05-27T00:34:11;14.27;;;6.68;;
39486;SDS011;25173;50.430;18.926;2023-05-27T00:37:11;18.13;;;6.70;;
39486;SDS011;25173;50.430;18.926;2023-05-27T00:40:14;21.15;;;6.88;;
39486;SDS011;25173;50.430;18.926;2023-05-27T00:43:15;18.15;;;6.43;;
39486;SDS011;25173;50.430;18.926;2023-05-27T00:46:16;19.05;;;6.13;;
39486;SDS011;25173;50.430;18.926;2023-05-27T00:49:17;18.50;;;5.90;;
39486;SDS011;25173;50.430;18.926;2023-05-27T00:52:19;16.10;;;6.10;;
39486;SDS011;25173;50.430;18.926;2023-05-27T00:55:19;13.23;;;6.10;;
39486;SDS011;25173;50.430;18.926;2023-05-27T00:58:20;22.42;;;7.93;;
39486;SDS011;25173;50.430;18.926;2023-05-27T01:01:21;19.63;;;6.40;;
39486;SDS011;25173;50.430;18.926;2023-05-27T01:04:25;18.98;;;6.97;;
39486;SDS011;25173;50.430;18.926;2023-05-27T01:07:33;16.52;;;6.65;;
39486;SDS011;25173;50.430;18.926;2023-05-27T01:10:49;17.40;;;6.35;;
39486;SDS011;25173;50.430;18.926;2023-05-27T01:13:54;21.00;;;6.53;;
39486;SDS011;25173;50.430;18.926;2023-05-27T01:16:59;18.15;;;7.25;;
39486;SDS011;25173;50.430;18.926;2023-05-27T01:20:03;18.30;;;6.50;;
39486;SDS011;25173;50.430;18.926;2023-05-27T01:23:06;18.42;;;6.25;;
39486;SDS011;25173;50.430;18.926;2023-05-27T01:26:08;19.77;;;7.05;;
39486;SDS011;25173;50.430;18.926;2023-05-27T01:29:09;16.52;;;6.93;;
39486;SDS011;25173;50.430;18.926;2023-05-27T01:35:28;25.63;;;6.72;;
39486;SDS011;25173;50.430;18.926;2023-05-27T01:38:31;13.32;;;6.57;;
39486;SDS011;25173;50.430;18.926;2023-05-27T01:41:33;21.65;;;7.20;;
39486;SDS011;25173;50.430;18.926;2023-05-27T01:44:36;18.00;;;6.88;;
39486;SDS011;25173;50.430;18.926;2023-05-27T01:47:38;23.08;;;6.78;;
39486;SDS011;25173;50.430;18.926;2023-05-27T01:50:38;20.40;;;6.88;;
39486;SDS011;25173;50.430;18.926;2023-05-27T01:53:39;17.83;;;6.80;;
39486;SDS011;25173;50.430;18.926;2023-05-27T01:56:40;18.73;;;6.80;;
39486;SDS011;25173;50.430;18.926;2023-05-27T01:59:41;19.27;;;6.57;;
39486;SDS011;25173;50.430;18.926;2023-05-27T02:02:42;17.55;;;6.90;;
39486;SDS011;25173;50.430;18.926;2023-05-27T02:05:43;14.50;;;5.82;;
39486;SDS011;25173;50.430;18.926;2023-05-27T02:08:44;19.88;;;6.97;;
39486;SDS011;25173;50.430;18.926;2023-05-27T02:11:44;14.80;;;7.03;;
39486;SDS011;25173;50.430;18.926;2023-05-27T02:14:45;17.58;;;7.47;;
39486;SDS011;25173;50.430;18.926;2023-05-27T02:17:46;21.50;;;6.85;;
39486;SDS011;25173;50.430;18.926;2023-05-27T02:20:47;18.10;;;7.28;;
39486;SDS011;25173;50.430;18.926;2023-05-27T02:23:47;20.98;;;6.50;;
39486;SDS011;25173;50.430;18.926;2023-05-27T02:26:48;18.92;;;6.65;;
39486;SDS011;25173;50.430;18.926;2023-05-27T02:29:48;17.63;;;6.35;;
39486;SDS011;25173;50.430;18.926;2023-05-27T02:32:50;14.93;;;6.65;;
39486;SDS011;25173;50.430;18.926;2023-05-27T02:35:51;15.60;;;6.80;;
39486;SDS011;25173;50.430;18.926;2023-05-27T02:38:51;18.17;;;6.32;;
39486;SDS011;25173;50.430;18.926;2023-05-27T02:41:52;16.60;;;6.95;;
39486;SDS011;25173;50.430;18.926;2023-05-27T02:44:57;14.52;;;6.35;;
39486;SDS011;25173;50.430;18.926;2023-05-27T02:47:58;19.95;;;6.93;;
39486;SDS011;25173;50.430;18.926;2023-05-27T02:51:01;15.32;;;6.28;;
39486;SDS011;25173;50.430;18.926;2023-05-27T02:54:02;18.48;;;6.32;;
39486;SDS011;25173;50.430;18.926;2023-05-27T02:57:03;28.05;;;7.53;;
39486;SDS011;25173;50.430;18.926;2023-05-27T03:00:04;17.30;;;6.07;;
39486;SDS011;25173;50.430;18.926;2023-05-27T03:03:05;24.75;;;6.88;;
39486;SDS011;25173;50.430;18.926;2023-05-27T03:06:07;18.42;;;7.05;;
39486;SDS011;25173;50.430;18.926;2023-05-27T03:09:09;18.55;;;6.50;;
39486;SDS011;25173;50.430;18.926;2023-05-27T03:12:10;15.65;;;6.50;;
39486;SDS011;25173;50.430;18.926;2023-05-27T03:15:10;14.70;;;5.57;;
39486;SDS011;25173;50.430;18.926;2023-05-27T03:18:11;24.30;;;7.18;;
39486;SDS011;25173;50.430;18.926;2023-05-27T03:21:12;20.85;;;6.63;;
39486;SDS011;25173;50.430;18.926;2023-05-27T03:24:13;27.95;;;7.82;;
39486;SDS011;25173;50.430;18.926;2023-05-27T03:27:15;16.23;;;5.88;;
39486;SDS011;25173;50.430;18.926;2023-05-27T03:30:19;22.85;;;6.75;;
39486;SDS011;25173;50.430;18.926;2023-05-27T03:33:23;19.50;;;7.68;;
39486;SDS011;25173;50.430;18.926;2023-05-27T03:36:25;19.83;;;6.60;;
39486;SDS011;25173;50.430;18.926;2023-05-27T03:39:41;17.85;;;6.53;;
39486;SDS011;25173;50.430;18.926;2023-05-27T03:42:42;23.25;;;6.05;;
39486;SDS011;25173;50.430;18.926;2023-05-27T03:45:46;17.17;;;7.00;;
39486;SDS011;25173;50.430;18.926;2023-05-27T03:48:47;18.27;;;6.75;;
39486;SDS011;25173;50.430;18.926;2023-05-27T03:51:48;16.10;;;5.85;;
39486;SDS011;25173;50.430;18.926;2023-05-27T03:54:49;20.05;;;6.60;;
39486;SDS011;25173;50.430;18.926;2023-05-27T03:57:50;20.23;;;6.65;;
39486;SDS011;25173;50.430;18.926;2023-05-27T04:00:50;21.20;;;6.22;;
39486;SDS011;25173;50.430;18.926;2023-05-27T04:03:51;14.32;;;6.15;;
39486;SDS011;25173;50.430;18.926;2023-05-27T04:06:52;12.32;;;5.10;;
39486;SDS011;25173;50.430;18.926;2023-05-27T04:09:54;15.93;;;5.55;;
39486;SDS011;25173;50.430;18.926;2023-05-27T04:12:56;18.08;;;6.10;;
39486;SDS011;25173;50.430;18.926;2023-05-27T04:15:56;20.33;;;5.13;;
39486;SDS011;25173;50.430;18.926;2023-05-27T04:18:57;14.45;;;5.30;;
39486;SDS011;25173;50.430;18.926;2023-05-27T04:21:59;15.30;;;5.18;;
39486;SDS011;25173;50.430;18.926;2023-05-27T04:25:00;18.45;;;5.07;;
39486;SDS011;25173;50.430;18.926;2023-05-27T04:28:07;16.95;;;5.80;;
39486;SDS011;25173;50.430;18.926;2023-05-27T04:31:13;16.25;;;5.47;;
39486;SDS011;25173;50.430;18.926;2023-05-27T04:34:19;17.00;;;5.65;;
39486;SDS011;25173;50.430;18.926;2023-05-27T04:37:20;13.02;;;5.45;;
39486;SDS011;25173;50.430;18.926;2023-05-27T04:40:22;19.98;;;5.32;;
39486;SDS011;25173;50.430;18.926;2023-05-27T04:43:45;17.52;;;5.85;;
39486;SDS011;25173;50.430;18.926;2023-05-27T04:46:49;18.70;;;5.55;;
39486;SDS011;25173;50.430;18.926;2023-05-27T04:49:50;15.10;;;4.70;;
39486;SDS011;25173;50.430;18.926;2023-05-27T04:52:52;11.73;;;4.00;;
39486;SDS011;25173;50.430;18.926;2023-05-27T04:55:53;12.82;;;4.72;;
39486;SDS011;25173;50.430;18.926;2023-05-27T04:58:54;15.98;;;5.05;;
39486;SDS011;25173;50.430;18.926;2023-05-27T05:02:01;14.27;;;4.65;;
39486;SDS011;25173;50.430;18.926;2023-05-27T05:05:18;14.80;;;4.53;;
39486;SDS011;25173;50.430;18.926;2023-05-27T05:08:20;13.20;;;4.22;;
39486;SDS011;25173;50.430;18.926;2023-05-27T05:11:22;16.70;;;5.53;;
39486;SDS011;25173;50.430;18.926;2023-05-27T05:14:23;14.77;;;4.60;;
39486;SDS011;25173;50.430;18.926;2023-05-27T05:17:25;17.33;;;4.90;;
39486;SDS011;25173;50.430;18.926;2023-05-27T05:20:25;14.82;;;4.63;;
39486;SDS011;25173;50.430;18.926;2023-05-27T05:23:26;15.45;;;5.00;;
39486;SDS011;25173;50.430;18.926;2023-05-27T05:26:27;14.18;;;4.55;;
39486;SDS011;25173;50.430;18.926;2023-05-27T05:29:27;13.15;;;4.63;;
39486;SDS011;25173;50.430;18.926;2023-05-27T05:32:28;14.65;;;4.78;;
39486;SDS011;25173;50.430;18.926;2023-05-27T05:35:29;17.25;;;4.60;;
39486;SDS011;25173;50.430;18.926;2023-05-27T05:38:41;10.55;;;4.50;;
39486;SDS011;25173;50.430;18.926;2023-05-27T05:41:42;12.55;;;4.03;;
39486;SDS011;25173;50.430;18.926;2023-05-27T05:44:42;17.63;;;4.68;;
39486;SDS011;25173;50.430;18.926;2023-05-27T05:47:43;20.48;;;4.82;;
39486;SDS011;25173;50.430;18.926;2023-05-27T05:50:48;13.07;;;4.30;;
39486;SDS011;25173;50.430;18.926;2023-05-27T05:53:49;13.98;;;4.10;;
39486;SDS011;25173;50.430;18.926;2023-05-27T05:56:51;12.73;;;4.15;;
39486;SDS011;25173;50.430;18.926;2023-05-27T05:59:52;16.33;;;4.35;;
39486;SDS011;25173;50.430;18.926;2023-05-27T06:02:56;14.15;;;4.25;;
39486;SDS011;25173;50.430;18.926;2023-05-27T06:06:15;12.82;;;4.60;;
39486;SDS011;25173;50.430;18.926;2023-05-27T06:09:34;13.25;;;4.85;;
39486;SDS011;25173;50.430;18.926;2023-05-27T06:12:38;15.98;;;4.93;;
39486;SDS011;25173;50.430;18.926;2023-05-27T06:15:39;14.32;;;3.95;;
39486;SDS011;25173;50.430;18.926;2023-05-27T06:18:43;13.20;;;3.95;;
39486;SDS011;25173;50.430;18.926;2023-05-27T06:21:46;12.32;;;4.07;;
39486;SDS011;25173;50.430;18.926;2023-05-27T06:25:05;17.75;;;4.57;;
39486;SDS011;25173;50.430;18.926;2023-05-27T06:28:18;12.65;;;4.03;;
39486;SDS011;25173;50.430;18.926;2023-05-27T06:31:18;21.20;;;4.78;;
39486;SDS011;25173;50.430;18.926;2023-05-27T06:34:19;11.98;;;4.32;;
39486;SDS011;25173;50.430;18.926;2023-05-27T06:37:20;15.80;;;4.88;;
39486;SDS011;25173;50.430;18.926;2023-05-27T06:40:21;11.70;;;3.60;;
39486;SDS011;25173;50.430;18.926;2023-05-27T06:43:22;17.17;;;4.45;;
39486;SDS011;25173;50.430;18.926;2023-05-27T06:46:33;11.25;;;4.35;;
39486;SDS011;25173;50.430;18.926;2023-05-27T06:49:40;16.02;;;4.63;;
39486;SDS011;25173;50.430;18.926;2023-05-27T06:52:41;10.80;;;4.60;;
39486;SDS011;25173;50.430;18.926;2023-05-27T06:55:44;15.00;;;4.50;;
39486;SDS011;25173;50.430;18.926;2023-05-27T06:59:08;13.38;;;3.47;;
39486;SDS011;25173;50.430;18.926;2023-05-27T07:02:08;10.50;;;3.05;;
39486;SDS011;25173;50.430;18.926;2023-05-27T07:05:09;13.35;;;3.55;;
39486;SDS011;25173;50.430;18.926;2023-05-27T07:08:09;16.20;;;3.83;;
39486;SDS011;25173;50.430;18.926;2023-05-27T07:11:13;12.82;;;4.25;;
39486;SDS011;25173;50.430;18.926;2023-05-27T07:14:14;9.27;;;3.17;;
39486;SDS011;25173;50.430;18.926;2023-05-27T07:17:16;9.77;;;3.83;;
39486;SDS011;25173;50.430;18.926;2023-05-27T07:20:17;11.70;;;4.03;;
39486;SDS011;25173;50.430;18.926;2023-05-27T07:23:18;9.95;;;3.40;;
39486;SDS011;25173;50.430;18.926;2023-05-27T07:26:26;17.70;;;3.75;;
39486;SDS011;25173;50.430;18.926;2023-05-27T07:29:28;13.35;;;3.83;;
39486;SDS011;25173;50.430;18.926;2023-05-27T07:32:40;13.00;;;3.70;;
39486;SDS011;25173;50.430;18.926;2023-05-27T07:35:41;13.20;;;4.53;;
39486;SDS011;25173;50.430;18.926;2023-05-27T07:38:42;9.93;;;3.55;;
39486;SDS011;25173;50.430;18.926;2023-05-27T07:41:43;12.63;;;3.80;;
39486;SDS011;25173;50.430;18.926;2023-05-27T07:44:43;9.80;;;3.35;;
39486;SDS011;25173;50.430;18.926;2023-05-27T07:47:45;11.40;;;3.25;;
39486;SDS011;25173;50.430;18.926;2023-05-27T07:50:46;16.95;;;4.47;;
39486;SDS011;25173;50.430;18.926;2023-05-27T07:53:51;13.07;;;3.97;;
39486;SDS011;25173;50.430;18.926;2023-05-27T07:56:53;12.25;;;3.63;;
39486;SDS011;25173;50.430;18.926;2023-05-27T07:59:54;11.25;;;4.07;;
39486;SDS011;25173;50.430;18.926;2023-05-27T08:02:57;18.52;;;4.72;;
39486;SDS011;25173;50.430;18.926;2023-05-27T08:06:27;13.80;;;3.75;;
39486;SDS011;25173;50.430;18.926;2023-05-27T08:09:33;11.95;;;3.90;;
39486;SDS011;25173;50.430;18.926;2023-05-27T08:12:51;16.30;;;3.55;;
39486;SDS011;25173;50.430;18.926;2023-05-27T08:16:00;13.82;;;3.40;;
39486;SDS011;25173;50.430;18.926;2023-05-27T08:19:28;13.70;;;3.88;;
39486;SDS011;25173;50.430;18.926;2023-05-27T08:22:37;14.13;;;4.00;;
39486;SDS011;25173;50.430;18.926;2023-05-27T08:26:04;9.07;;;3.53;;
39486;SDS011;25173;50.430;18.926;2023-05-27T08:29:23;16.20;;;3.70;;
39486;SDS011;25173;50.430;18.926;2023-05-27T08:32:46;9.30;;;3.35;;
39486;SDS011;25173;50.430;18.926;2023-05-27T08:35:47;12.30;;;3.10;;
39486;SDS011;25173;50.430;18.926;2023-05-27T08:38:48;9.15;;;3.88;;
39486;SDS011;25173;50.430;18.926;2023-05-27T08:41:54;11.10;;;3.53;;
39486;SDS011;25173;50.430;18.926;2023-05-27T08:44:55;12.07;;;4.45;;
39486;SDS011;25173;50.430;18.926;2023-05-27T08:47:56;11.77;;;4.20;;
39486;SDS011;25173;50.430;18.926;2023-05-27T08:51:05;10.07;;;3.30;;
39486;SDS011;25173;50.430;18.926;2023-05-27T08:54:16;7.68;;;3.15;;
39486;SDS011;25173;50.430;18.926;2023-05-27T08:57:19;11.70;;;4.25;;
39486;SDS011;25173;50.430;18.926;2023-05-27T09:00:25;14.30;;;3.45;;
39486;SDS011;25173;50.430;18.926;2023-05-27T09:03:28;10.13;;;3.67;;
39486;SDS011;25173;50.430;18.926;2023-05-27T09:06:30;14.45;;;3.88;;
39486;SDS011;25173;50.430;18.926;2023-05-27T09:09:31;11.65;;;4.15;;
39486;SDS011;25173;50.430;18.926;2023-05-27T09:12:31;8.25;;;3.42;;
39486;SDS011;25173;50.430;18.926;2023-05-27T09:15:33;10.35;;;3.58;;
39486;SDS011;25173;50.430;18.926;2023-05-27T09:18:35;11.25;;;3.97;;
39486;SDS011;25173;50.430;18.926;2023-05-27T09:21:37;17.38;;;4.07;;
39486;SDS011;25173;50.430;18.926;2023-05-27T09:24:38;10.85;;;3.17;;
39486;SDS011;25173;50.430;18.926;2023-05-27T09:27:39;12.98;;;3.72;;
39486;SDS011;25173;50.430;18.926;2023-05-27T09:30:43;11.77;;;3.67;;
39486;SDS011;25173;50.430;18.926;2023-05-27T09:33:44;16.63;;;4.00;;
39486;SDS011;25173;50.430;18.926;2023-05-27T09:36:46;10.75;;;3.22;;
39486;SDS011;25173;50.430;18.926;2023-05-27T09:39:51;8.18;;;3.17;;
39486;SDS011;25173;50.430;18.926;2023-05-27T09:42:52;9.68;;;3.72;;
39486;SDS011;25173;50.430;18.926;2023-05-27T09:46:00;9.52;;;3.00;;
39486;SDS011;25173;50.430;18.926;2023-05-27T09:49:02;9.10;;;3.00;;
39486;SDS011;25173;50.430;18.926;2023-05-27T09:52:07;12.32;;;3.13;;
39486;SDS011;25173;50.430;18.926;2023-05-27T09:55:11;9.15;;;3.60;;
39486;SDS011;25173;50.430;18.926;2023-05-27T09:58:15;10.93;;;2.63;;
39486;SDS011;25173;50.430;18.926;2023-05-27T10:01:16;7.22;;;3.20;;
39486;SDS011;25173;50.430;18.926;2023-05-27T10:04:19;7.75;;;3.28;;
39486;SDS011;25173;50.430;18.926;2023-05-27T10:07:21;9.70;;;3.30;;
39486;SDS011;25173;50.430;18.926;2023-05-27T10:10:23;5.40;;;2.42;;
39486;SDS011;25173;50.430;18.926;2023-05-27T10:13:24;8.77;;;3.28;;
39486;SDS011;25173;50.430;18.926;2023-05-27T10:16:27;8.43;;;3.13;;
39486;SDS011;25173;50.430;18.926;2023-05-27T10:19:28;6.15;;;3.22;;
39486;SDS011;25173;50.430;18.926;2023-05-27T10:22:37;8.13;;;3.40;;
39486;SDS011;25173;50.430;18.926;2023-05-27T10:25:39;10.85;;;3.20;;
39486;SDS011;25173;50.430;18.926;2023-05-27T10:28:41;8.95;;;2.95;;
39486;SDS011;25173;50.430;18.926;2023-05-27T10:31:48;8.07;;;3.45;;
39486;SDS011;25173;50.430;18.926;2023-05-27T10:34:52;7.07;;;3.22;;
39486;SDS011;25173;50.430;18.926;2023-05-27T10:37:55;5.40;;;2.67;;
39486;SDS011;25173;50.430;18.926;2023-05-27T10:41:00;10.15;;;4.63;;
39486;SDS011;25173;50.430;18.926;2023-05-27T10:44:01;8.40;;;3.53;;
39486;SDS011;25173;50.430;18.926;2023-05-27T10:47:08;8.55;;;3.38;;
39486;SDS011;25173;50.430;18.926;2023-05-27T10:50:16;7.97;;;3.85;;
39486;SDS011;25173;50.430;18.926;2023-05-27T10:53:18;7.32;;;3.15;;
39486;SDS011;25173;50.430;18.926;2023-05-27T10:56:21;7.55;;;2.92;;
39486;SDS011;25173;50.430;18.926;2023-05-27T10:59:22;7.43;;;3.63;;
39486;SDS011;25173;50.430;18.926;2023-05-27T11:02:23;7.63;;;3.67;;
39486;SDS011;25173;50.430;18.926;2023-05-27T11:05:27;13.30;;;3.10;;
39486;SDS011;25173;50.430;18.926;2023-05-27T11:08:32;9.80;;;4.28;;
39486;SDS011;25173;50.430;18.926;2023-05-27T11:11:33;6.78;;;3.38;;
39486;SDS011;25173;50.430;18.926;2023-05-27T11:14:36;6.75;;;3.15;;
39486;SDS011;25173;50.430;18.926;2023-05-27T11:17:36;9.27;;;3.03;;
39486;SDS011;25173;50.430;18.926;2023-05-27T11:20:37;6.93;;;2.95;;
39486;SDS011;25173;50.430;18.926;2023-05-27T11:23:40;10.77;;;3.88;;
39486;SDS011;25173;50.430;18.926;2023-05-27T11:26:44;6.30;;;3.13;;
39486;SDS011;25173;50.430;18.926;2023-05-27T11:29:49;4.82;;;3.08;;
39486;SDS011;25173;50.430;18.926;2023-05-27T11:32:52;7.43;;;3.08;;
39486;SDS011;25173;50.430;18.926;2023-05-27T11:36:02;6.22;;;3.05;;
39486;SDS011;25173;50.430;18.926;2023-05-27T11:39:03;7.00;;;3.63;;
39486;SDS011;25173;50.430;18.926;2023-05-27T11:42:05;7.10;;;3.65;;
39486;SDS011;25173;50.430;18.926;2023-05-27T11:45:13;5.43;;;2.90;;
39486;SDS011;25173;50.430;18.926;2023-05-27T11:48:15;6.82;;;3.08;;
39486;SDS011;25173;50.430;18.926;2023-05-27T11:51:16;6.55;;;2.47;;
39486;SDS011;25173;50.430;18.926;2023-05-27T11:54:26;6.38;;;2.67;;
39486;SDS011;25173;50.430;18.926;2023-05-27T11:57:29;7.57;;;3.53;;
39486;SDS011;25173;50.430;18.926;2023-05-27T12:00:31;6.85;;;3.55;;
39486;SDS011;25173;50.430;18.926;2023-05-27T12:03:34;7.40;;;2.60;;
39486;SDS011;25173;50.430;18.926;2023-05-27T12:06:36;7.72;;;2.47;;
39486;SDS011;25173;50.430;18.926;2023-05-27T12:09:37;4.13;;;2.50;;
39486;SDS011;25173;50.430;18.926;2023-05-27T12:12:38;3.75;;;2.47;;
39486;SDS011;25173;50.430;18.926;2023-05-27T12:15:42;3.22;;;2.15;;
39486;SDS011;25173;50.430;18.926;2023-05-27T12:18:42;5.15;;;2.55;;
39486;SDS011;25173;50.430;18.926;2023-05-27T12:21:43;8.10;;;3.40;;
39486;SDS011;25173;50.430;18.926;2023-05-27T12:24:44;5.85;;;3.28;;
39486;SDS011;25173;50.430;18.926;2023-05-27T12:27:44;12.02;;;4.30;;
39486;SDS011;25173;50.430;18.926;2023-05-27T12:30:46;5.20;;;3.00;;
39486;SDS011;25173;50.430;18.926;2023-05-27T12:33:47;4.07;;;2.38;;
39486;SDS011;25173;50.430;18.926;2023-05-27T12:36:48;12.40;;;5.45;;
39486;SDS011;25173;50.430;18.926;2023-05-27T12:39:48;6.40;;;2.97;;
39486;SDS011;25173;50.430;18.926;2023-05-27T12:42:49;7.22;;;2.90;;
39486;SDS011;25173;50.430;18.926;2023-05-27T12:45:50;5.47;;;2.00;;
39486;SDS011;25173;50.430;18.926;2023-05-27T12:48:52;4.22;;;2.13;;
39486;SDS011;25173;50.430;18.926;2023-05-27T12:51:52;5.78;;;2.03;;
39486;SDS011;25173;50.430;18.926;2023-05-27T12:54:55;3.95;;;2.22;;
39486;SDS011;25173;50.430;18.926;2023-05-27T12:57:55;8.30;;;2.00;;
39486;SDS011;25173;50.430;18.926;2023-05-27T13:00:56;5.60;;;2.38;;
39486;SDS011;25173;50.430;18.926;2023-05-27T13:03:57;4.25;;;1.85;;
39486;SDS011;25173;50.430;18.926;2023-05-27T13:06:57;5.00;;;2.25;;
39486;SDS011;25173;50.430;18.926;2023-05-27T13:10:00;4.70;;;2.53;;
39486;SDS011;25173;50.430;18.926;2023-05-27T13:13:03;5.77;;;2.43;;
39486;SDS011;25173;50.430;18.926;2023-05-27T13:16:04;4.13;;;2.28;;
39486;SDS011;25173;50.430;18.926;2023-05-27T13:19:04;4.78;;;2.35;;
39486;SDS011;25173;50.430;18.926;2023-05-27T13:22:05;6.30;;;2.28;;
39486;SDS011;25173;50.430;18.926;2023-05-27T13:25:06;8.55;;;2.30;;
39486;SDS011;25173;50.430;18.926;2023-05-27T13:28:07;6.30;;;2.38;;
39486;SDS011;25173;50.430;18.926;2023-05-27T13:31:08;5.32;;;2.10;;
39486;SDS011;25173;50.430;18.926;2023-05-27T13:34:09;5.32;;;2.40;;
39486;SDS011;25173;50.430;18.926;2023-05-27T13:37:09;7.13;;;2.70;;
39486;SDS011;25173;50.430;18.926;2023-05-27T13:40:10;11.38;;;2.92;;
39486;SDS011;25173;50.430;18.926;2023-05-27T13:43:11;7.10;;;2.38;;
39486;SDS011;25173;50.430;18.926;2023-05-27T13:46:11;6.10;;;2.53;;
39486;SDS011;25173;50.430;18.926;2023-05-27T13:49:12;4.13;;;2.22;;
39486;SDS011;25173;50.430;18.926;2023-05-27T13:52:12;4.78;;;3.03;;
39486;SDS011;25173;50.430;18.926;2023-05-27T13:55:13;3.70;;;2.13;;
39486;SDS011;25173;50.430;18.926;2023-05-27T13:58:13;3.80;;;2.10;;
39486;SDS011;25173;50.430;18.926;2023-05-27T14:01:14;8.85;;;2.20;;
39486;SDS011;25173;50.430;18.926;2023-05-27T14:04:15;6.20;;;2.15;;
39486;SDS011;25173;50.430;18.926;2023-05-27T14:07:16;3.38;;;2.05;;
39486;SDS011;25173;50.430;18.926;2023-05-27T14:10:17;3.20;;;2.28;;
39486;SDS011;25173;50.430;18.926;2023-05-27T14:13:17;3.83;;;1.80;;
39486;SDS011;25173;50.430;18.926;2023-05-27T14:16:18;2.28;;;1.55;;
39486;SDS011;25173;50.430;18.926;2023-05-27T14:19:18;5.28;;;2.20;;
39486;SDS011;25173;50.430;18.926;2023-05-27T14:22:19;4.22;;;2.38;;
39486;SDS011;25173;50.430;18.926;2023-05-27T14:25:20;5.03;;;2.00;;
39486;SDS011;25173;50.430;18.926;2023-05-27T14:28:21;4.68;;;2.35;;
39486;SDS011;25173;50.430;18.926;2023-05-27T14:31:21;2.65;;;1.75;;
39486;SDS011;25173;50.430;18.926;2023-05-27T14:34:22;3.80;;;2.08;;
39486;SDS011;25173;50.430;18.926;2023-05-27T14:37:22;3.50;;;2.35;;
39486;SDS011;25173;50.430;18.926;2023-05-27T14:40:23;4.50;;;1.70;;
39486;SDS011;25173;50.430;18.926;2023-05-27T14:43:24;5.65;;;2.15;;
39486;SDS011;25173;50.430;18.926;2023-05-27T14:46:25;7.90;;;1.90;;
39486;SDS011;25173;50.430;18.926;2023-05-27T14:49:25;6.35;;;2.10;;
39486;SDS011;25173;50.430;18.926;2023-05-27T14:52:26;3.08;;;1.83;;
39486;SDS011;25173;50.430;18.926;2023-05-27T14:55:26;4.40;;;2.00;;
39486;SDS011;25173;50.430;18.926;2023-05-27T14:58:27;4.70;;;2.50;;
39486;SDS011;25173;50.430;18.926;2023-05-27T15:01:27;2.63;;;2.00;;
39486;SDS011;25173;50.430;18.926;2023-05-27T15:04:28;4.57;;;1.92;;
39486;SDS011;25173;50.430;18.926;2023-05-27T15:07:29;4.28;;;1.80;;
39486;SDS011;25173;50.430;18.926;2023-05-27T15:10:29;4.82;;;2.13;;
39486;SDS011;25173;50.430;18.926;2023-05-27T15:13:30;6.10;;;2.28;;
39486;SDS011;25173;50.430;18.926;2023-05-27T15:16:31;7.43;;;1.90;;
39486;SDS011;25173;50.430;18.926;2023-05-27T15:19:32;4.43;;;2.10;;
39486;SDS011;25173;50.430;18.926;2023-05-27T15:22:33;3.63;;;2.25;;
39486;SDS011;25173;50.430;18.926;2023-05-27T15:25:34;5.68;;;2.05;;
39486;SDS011;25173;50.430;18.926;2023-05-27T15:28:34;3.70;;;2.38;;
39486;SDS011;25173;50.430;18.926;2023-05-27T15:31:35;4.03;;;2.63;;
39486;SDS011;25173;50.430;18.926;2023-05-27T15:34:35;4.05;;;1.88;;
39486;SDS011;25173;50.430;18.926;2023-05-27T15:37:36;4.90;;;2.03;;
39486;SDS011;25173;50.430;18.926;2023-05-27T15:40:37;3.08;;;2.03;;
39486;SDS011;25173;50.430;18.926;2023-05-27T15:43:41;5.93;;;2.25;;
39486;SDS011;25173;50.430;18.926;2023-05-27T15:46:41;4.88;;;2.33;;
39486;SDS011;25173;50.430;18.926;2023-05-27T15:49:43;16.30;;;10.13;;
39486;SDS011;25173;50.430;18.926;2023-05-27T15:52:48;5.07;;;2.55;;
39486;SDS011;25173;50.430;18.926;2023-05-27T15:55:49;7.30;;;3.00;;
39486;SDS011;25173;50.430;18.926;2023-05-27T15:58:50;6.80;;;2.00;;
39486;SDS011;25173;50.430;18.926;2023-05-27T16:01:51;4.45;;;2.33;;
39486;SDS011;25173;50.430;18.926;2023-05-27T16:04:51;5.60;;;2.33;;
39486;SDS011;25173;50.430;18.926;2023-05-27T16:07:52;4.68;;;2.40;;
39486;SDS011;25173;50.430;18.926;2023-05-27T16:10:53;4.63;;;3.22;;
39486;SDS011;25173;50.430;18.926;2023-05-27T16:13:54;6.15;;;2.47;;
39486;SDS011;25173;50.430;18.926;2023-05-27T16:16:54;3.88;;;2.00;;
39486;SDS011;25173;50.430;18.926;2023-05-27T16:19:55;5.40;;;3.08;;
39486;SDS011;25173;50.430;18.926;2023-05-27T16:22:56;4.78;;;3.00;;
39486;SDS011;25173;50.430;18.926;2023-05-27T16:25:57;3.90;;;3.15;;
39486;SDS011;25173;50.430;18.926;2023-05-27T16:28:58;4.53;;;2.60;;
39486;SDS011;25173;50.430;18.926;2023-05-27T16:31:58;4.40;;;2.72;;
39486;SDS011;25173;50.430;18.926;2023-05-27T16:34:59;7.72;;;4.00;;
39486;SDS011;25173;50.430;18.926;2023-05-27T16:38:00;9.18;;;3.55;;
39486;SDS011;25173;50.430;18.926;2023-05-27T16:41:00;11.07;;;3.05;;
39486;SDS011;25173;50.430;18.926;2023-05-27T16:44:01;5.65;;;2.50;;
39486;SDS011;25173;50.430;18.926;2023-05-27T16:47:02;3.42;;;2.22;;
39486;SDS011;25173;50.430;18.926;2023-05-27T16:50:04;6.05;;;2.20;;
39486;SDS011;25173;50.430;18.926;2023-05-27T16:53:05;4.68;;;2.25;;
39486;SDS011;25173;50.430;18.926;2023-05-27T16:56:07;9.48;;;2.70;;
39486;SDS011;25173;50.430;18.926;2023-05-27T16:59:07;6.63;;;2.88;;
39486;SDS011;25173;50.430;18.926;2023-05-27T17:02:08;5.10;;;3.30;;
39486;SDS011;25173;50.430;18.926;2023-05-27T17:05:08;5.57;;;2.70;;
39486;SDS011;25173;50.430;18.926;2023-05-27T17:08:09;7.65;;;3.00;;
39486;SDS011;25173;50.430;18.926;2023-05-27T17:11:10;5.68;;;2.45;;
39486;SDS011;25173;50.430;18.926;2023-05-27T17:14:11;4.50;;;2.25;;
39486;SDS011;25173;50.430;18.926;2023-05-27T17:17:12;6.13;;;2.20;;
39486;SDS011;25173;50.430;18.926;2023-05-27T17:20:17;5.93;;;2.30;;
39486;SDS011;25173;50.430;18.926;2023-05-27T17:23:19;7.10;;;2.83;;
39486;SDS011;25173;50.430;18.926;2023-05-27T17:26:19;6.38;;;2.45;;
39486;SDS011;25173;50.430;18.926;2023-05-27T17:29:20;7.30;;;2.33;;
39486;SDS011;25173;50.430;18.926;2023-05-27T17:32:20;6.47;;;2.65;;
39486;SDS011;25173;50.430;18.926;2023-05-27T17:35:21;8.48;;;2.95;;
39486;SDS011;25173;50.430;18.926;2023-05-27T17:38:22;4.13;;;2.40;;
39486;SDS011;25173;50.430;18.926;2023-05-27T17:41:26;5.30;;;2.53;;
39486;SDS011;25173;50.430;18.926;2023-05-27T17:44:27;9.43;;;3.03;;
39486;SDS011;25173;50.430;18.926;2023-05-27T17:47:28;6.47;;;2.60;;
39486;SDS011;25173;50.430;18.926;2023-05-27T17:50:28;11.43;;;3.13;;
39486;SDS011;25173;50.430;18.926;2023-05-27T17:53:29;6.32;;;2.53;;
39486;SDS011;25173;50.430;18.926;2023-05-27T17:56:29;8.23;;;2.90;;
39486;SDS011;25173;50.430;18.926;2023-05-27T17:59:30;6.18;;;3.35;;